createdAt,value
2022-11-11T00:02:42.275Z,88.54
2022-11-11T00:05:29.862Z,95.47
2022-11-11T00:08:17.464Z,100.00
2022-11-11T00:11:05.042Z,100.00
2022-11-11T00:13:52.633Z,100.00
2022-11-11T00:16:40.221Z,89.58
2022-11-11T00:19:27.795Z,98.79
2022-11-11T00:22:17.344Z,97.79
2022-11-11T00:25:04.924Z,92.45
2022-11-11T00:27:52.498Z,95.59
2022-11-11T00:30:40.062Z,98.56
2022-11-11T00:33:27.642Z,100.00
2022-11-11T00:36:15.538Z,97.51
2022-11-11T00:39:03.096Z,97.66
2022-11-11T00:41:50.680Z,98.86
2022-11-11T00:44:38.279Z,92.83
2022-11-11T00:47:25.963Z,97.03
2022-11-11T00:50:13.562Z,100.00
2022-11-11T00:53:01.214Z,100.00
2022-11-11T00:55:48.846Z,96.71
2022-11-11T00:58:36.472Z,88.31
2022-11-11T01:01:24.158Z,95.61
2022-11-11T01:04:11.788Z,96.21
2022-11-11T01:06:59.533Z,93.88
2022-11-11T01:09:47.265Z,84.14
2022-11-11T01:12:34.979Z,88.59
2022-11-11T01:15:22.579Z,91.17
2022-11-11T01:18:10.167Z,90.82
2022-11-11T01:20:57.916Z,89.68
2022-11-11T01:23:45.751Z,89.59
2022-11-11T01:26:33.328Z,87.35
2022-11-11T01:29:20.995Z,95.99
2022-11-11T01:32:08.657Z,92.92
2022-11-11T01:34:56.265Z,91.46
2022-11-11T01:37:43.858Z,95.30
2022-11-11T01:40:31.485Z,100.00
2022-11-11T01:43:19.181Z,100.00
2022-11-11T01:46:06.790Z,100.00
2022-11-11T01:48:54.373Z,100.00
2022-11-11T01:51:41.983Z,100.00
2022-11-11T01:54:29.694Z,100.00
2022-11-11T01:57:17.387Z,100.00
2022-11-11T02:00:05.151Z,100.00
2022-11-11T02:02:53.029Z,99.70
2022-11-11T02:05:40.703Z,100.00
2022-11-11T02:08:28.294Z,98.43
2022-11-11T02:11:15.880Z,95.89
2022-11-11T02:14:03.561Z,94.90
2022-11-11T02:16:51.264Z,97.39
2022-11-11T02:19:38.998Z,97.18
2022-11-11T02:22:26.676Z,96.89
2022-11-11T02:25:16.325Z,96.96
2022-11-11T02:28:04.089Z,97.85
2022-11-11T02:30:51.798Z,95.13
2022-11-11T02:33:39.578Z,93.40
2022-11-11T02:36:27.161Z,94.89
2022-11-11T02:39:14.885Z,95.95
2022-11-11T02:42:02.624Z,94.95
2022-11-11T02:44:50.383Z,88.96
2022-11-11T02:47:38.046Z,85.96
2022-11-11T02:50:25.785Z,84.52
2022-11-11T02:53:13.389Z,80.83
2022-11-11T02:56:01.080Z,86.01
2022-11-11T02:58:49.102Z,80.96
2022-11-11T03:01:37.064Z,79.32
2022-11-11T03:04:24.796Z,82.37
2022-11-11T03:07:12.443Z,76.98
2022-11-11T03:10:00.322Z,73.71
2022-11-11T03:12:48.142Z,74.37
2022-11-11T03:15:35.748Z,78.05
2022-11-11T03:18:23.418Z,77.47
2022-11-11T03:22:09.999Z,74.02
2022-11-11T03:24:18.552Z,75.74
2022-11-11T03:27:06.154Z,77.69
2022-11-11T03:29:53.728Z,76.51
2022-11-11T03:32:41.283Z,73.86
2022-11-11T03:35:28.917Z,72.03
2022-11-11T03:38:16.488Z,68.52
2022-11-11T03:41:04.078Z,67.59
2022-11-11T03:43:51.657Z,66.54
2022-11-11T03:46:39.251Z,64.99
2022-11-11T03:49:26.797Z,64.19
2022-11-11T03:52:14.397Z,64.02
2022-11-11T03:55:01.961Z,63.25
2022-11-11T03:57:49.563Z,61.13
2022-11-11T04:00:37.121Z,61.43
2022-11-11T04:03:25.124Z,60.87
2022-11-11T04:06:12.980Z,60.09
2022-11-11T04:09:00.592Z,59.17
2022-11-11T04:11:48.182Z,59.07
2022-11-11T04:14:55.708Z,59.49
2022-11-11T04:17:43.572Z,59.88
2022-11-11T04:20:31.186Z,60.43
2022-11-11T04:23:18.791Z,59.93
2022-11-11T04:26:06.335Z,59.88
2022-11-11T04:28:53.894Z,60.55
2022-11-11T04:31:41.468Z,63.20
2022-11-11T04:34:29.026Z,64.88
2022-11-11T04:37:16.690Z,64.51
2022-11-11T04:40:06.248Z,62.35
2022-11-11T04:42:53.847Z,61.36
2022-11-11T04:45:41.434Z,60.11
2022-11-11T04:48:29.025Z,59.20
2022-11-11T04:51:16.577Z,59.19
2022-11-11T04:54:04.149Z,58.82
2022-11-11T04:56:51.724Z,59.94
2022-11-11T04:59:39.314Z,59.95
2022-11-11T05:02:26.886Z,59.89
2022-11-11T05:05:14.485Z,59.00
2022-11-11T05:08:02.041Z,58.57
2022-11-11T05:10:49.624Z,58.89
2022-11-11T05:13:37.199Z,58.27
2022-11-11T05:16:24.755Z,58.27
2022-11-11T05:19:12.341Z,58.25
2022-11-11T05:21:59.913Z,58.29
2022-11-11T05:24:47.502Z,58.56
2022-11-11T05:27:35.091Z,60.87
2022-11-11T05:30:22.651Z,60.98
2022-11-11T05:33:10.316Z,61.23
2022-11-11T05:35:59.872Z,61.14
2022-11-11T05:38:47.455Z,60.87
2022-11-11T05:41:35.070Z,60.93
2022-11-11T05:44:22.658Z,61.87
2022-11-11T05:47:10.267Z,61.77
2022-11-11T05:49:57.838Z,61.20
2022-11-11T05:52:45.422Z,61.53
2022-11-11T05:55:32.985Z,61.25
2022-11-11T05:58:20.562Z,62.87
2022-11-11T06:01:08.126Z,60.93
2022-11-11T06:03:55.728Z,61.34
2022-11-11T06:06:43.353Z,61.03
2022-11-11T06:09:30.942Z,60.74
2022-11-11T06:12:18.515Z,60.75
2022-11-11T06:15:06.091Z,60.92
2022-11-11T06:17:53.686Z,61.30
2022-11-11T06:20:41.361Z,61.52
2022-11-11T06:23:28.946Z,62.08
2022-11-11T06:26:16.538Z,62.04
2022-11-11T06:29:04.144Z,61.97
2022-11-11T06:31:51.725Z,60.97
2022-11-11T06:34:39.330Z,61.60
2022-11-11T06:37:26.915Z,63.75
2022-11-11T06:40:18.914Z,62.83
2022-11-11T06:43:09.249Z,62.05
2022-11-11T06:45:56.838Z,61.72
2022-11-11T06:48:44.419Z,62.47
2022-11-11T06:51:32.043Z,61.92
2022-11-11T06:54:19.620Z,62.18
2022-11-11T06:57:08.657Z,62.20
2022-11-11T06:59:56.435Z,61.71
2022-11-11T07:02:44.022Z,61.63
2022-11-11T07:05:31.596Z,63.44
2022-11-11T07:08:19.288Z,63.38
2022-11-11T07:11:15.608Z,63.95
2022-11-11T07:14:06.212Z,64.16
2022-11-11T07:16:53.792Z,63.82
2022-11-11T07:19:41.572Z,64.07
2022-11-11T07:22:31.129Z,63.43
2022-11-11T07:25:21.841Z,63.18
2022-11-11T07:28:09.421Z,63.88
2022-11-11T07:30:57.026Z,64.76
2022-11-11T07:33:44.588Z,64.94
2022-11-11T07:36:32.175Z,64.02
2022-11-11T07:39:19.754Z,64.41
2022-11-11T07:42:08.927Z,63.80
2022-11-11T07:44:58.491Z,63.98
2022-11-11T07:47:46.091Z,63.44
2022-11-11T07:50:33.673Z,63.63
2022-11-11T07:53:21.533Z,64.19
2022-11-11T07:56:09.338Z,64.11
2022-11-11T07:58:56.925Z,65.83
2022-11-11T08:01:44.517Z,68.07
2022-11-11T08:04:32.114Z,67.83
2022-11-11T08:07:22.937Z,66.70
2022-11-11T08:10:11.162Z,69.29
2022-11-11T08:12:58.740Z,69.51
2022-11-11T08:15:46.347Z,68.54
2022-11-11T08:18:33.910Z,67.70
2022-11-11T08:21:21.530Z,66.87
2022-11-11T08:25:01.490Z,64.60
2022-11-11T08:27:16.633Z,66.77
2022-11-11T08:30:04.221Z,65.23
2022-11-11T08:33:11.787Z,64.83
2022-11-11T08:35:59.343Z,64.63
2022-11-11T08:38:46.930Z,63.85
2022-11-11T08:41:34.514Z,65.13
2022-11-11T08:44:22.088Z,64.78
2022-11-11T08:47:09.685Z,63.78
2022-11-11T08:49:57.261Z,62.98
2022-11-11T08:52:44.871Z,62.94
2022-11-11T08:55:32.456Z,61.72
2022-11-11T08:58:21.014Z,62.31
2022-11-11T09:01:08.644Z,62.73
2022-11-11T09:03:56.238Z,62.39
2022-11-11T09:06:43.838Z,61.87
2022-11-11T09:09:31.465Z,61.05
2022-11-11T09:12:19.072Z,60.82
2022-11-11T09:15:06.660Z,64.33
2022-11-11T09:17:54.245Z,65.55
2022-11-11T09:20:41.823Z,63.75
2022-11-11T09:23:29.421Z,67.05
2022-11-11T09:26:16.997Z,67.87
2022-11-11T09:29:04.593Z,69.48
2022-11-11T09:31:52.180Z,68.00
2022-11-11T09:34:39.758Z,67.32
2022-11-11T09:37:27.413Z,70.97
2022-11-11T09:40:14.991Z,72.64
2022-11-11T09:43:02.572Z,72.00
2022-11-11T09:45:50.158Z,71.03
2022-11-11T09:48:37.753Z,73.99
2022-11-11T09:51:25.357Z,79.33
2022-11-11T09:54:12.947Z,77.97
2022-11-11T09:57:00.513Z,79.37
2022-11-11T09:59:48.085Z,79.18
2022-11-11T10:02:35.655Z,77.80
2022-11-11T10:05:23.261Z,74.07
2022-11-11T10:08:10.841Z,71.47
2022-11-11T10:10:58.438Z,71.71
2022-11-11T10:13:46.031Z,71.31
2022-11-11T10:16:33.623Z,75.83
2022-11-11T10:19:21.189Z,74.19
2022-11-11T10:22:13.401Z,72.27
2022-11-11T10:25:01.360Z,71.95
2022-11-11T10:27:49.025Z,71.99
2022-11-11T10:30:36.611Z,70.19
2022-11-11T10:33:24.204Z,67.62
2022-11-11T10:36:11.805Z,67.41
2022-11-11T10:38:59.392Z,68.05
2022-11-11T10:41:49.029Z,67.01
2022-11-11T10:44:36.591Z,65.58
2022-11-11T10:47:24.193Z,67.36
2022-11-11T10:50:11.803Z,70.46
2022-11-11T10:52:59.375Z,72.66
2022-11-11T10:55:46.966Z,72.31
2022-11-11T10:58:34.568Z,72.72
2022-11-11T11:01:22.259Z,70.17
2022-11-11T11:04:09.881Z,72.29
2022-11-11T11:06:57.478Z,74.38
2022-11-11T11:09:45.094Z,71.54
2022-11-11T11:12:32.697Z,75.89
2022-11-11T11:15:20.277Z,73.96
2022-11-11T11:18:07.891Z,76.81
2022-11-11T11:20:55.477Z,75.00
2022-11-11T11:23:43.082Z,72.84
2022-11-11T11:26:30.631Z,72.12
2022-11-11T11:29:18.208Z,75.23
2022-11-11T11:32:05.810Z,76.53
2022-11-11T11:34:53.366Z,74.17
2022-11-11T11:37:40.937Z,75.30
2022-11-11T11:40:28.516Z,77.73
2022-11-11T11:43:16.097Z,75.13
2022-11-11T11:46:08.081Z,74.74
2022-11-11T11:48:56.032Z,74.31
2022-11-11T11:51:43.624Z,73.07
2022-11-11T11:54:31.200Z,76.61
2022-11-11T11:57:18.797Z,77.28
2022-11-11T12:00:06.374Z,78.04
2022-11-11T12:02:53.960Z,73.88
2022-11-11T12:05:41.581Z,74.14
2022-11-11T12:08:29.159Z,75.48
2022-11-11T12:11:16.739Z,73.91
2022-11-11T12:14:04.434Z,72.82
2022-11-11T12:16:54.005Z,70.78
2022-11-11T12:19:41.605Z,65.31
2022-11-11T12:22:29.204Z,68.86
2022-11-11T12:25:16.775Z,68.43
2022-11-11T12:28:04.350Z,65.50
2022-11-11T12:30:52.017Z,65.54
2022-11-11T12:33:39.576Z,64.64
2022-11-11T12:36:27.196Z,65.97
2022-11-11T12:39:15.459Z,65.54
2022-11-11T12:42:03.055Z,70.18
2022-11-11T12:44:50.620Z,72.46
2022-11-11T12:47:38.301Z,68.64
2022-11-11T12:50:25.876Z,67.88
2022-11-11T12:53:13.460Z,68.34
2022-11-11T12:56:01.035Z,71.37
2022-11-11T12:58:48.580Z,66.44
2022-11-11T13:01:36.197Z,67.77
2022-11-11T13:04:23.780Z,68.63
2022-11-11T13:07:11.463Z,66.21
2022-11-11T13:09:59.078Z,68.90
2022-11-11T13:12:46.670Z,68.68
2022-11-11T13:15:34.245Z,68.40
2022-11-11T13:18:21.827Z,68.14
2022-11-11T13:21:09.397Z,68.48
2022-11-11T13:23:56.993Z,68.27
2022-11-11T13:26:44.576Z,66.49
2022-11-11T13:29:32.210Z,67.09
2022-11-11T13:32:19.815Z,66.38
2022-11-11T13:35:07.405Z,65.17
2022-11-11T13:37:55.009Z,67.28
2022-11-11T13:40:42.577Z,67.64
2022-11-11T13:43:30.188Z,68.36
2022-11-11T13:46:17.761Z,66.67
2022-11-11T13:49:05.364Z,68.42
2022-11-11T13:51:52.923Z,71.16
2022-11-11T13:54:40.617Z,75.00
2022-11-11T13:57:30.200Z,75.01
2022-11-11T14:00:17.808Z,76.41
2022-11-11T14:03:05.366Z,70.32
2022-11-11T14:05:52.973Z,71.52
2022-11-11T14:08:40.545Z,72.60
2022-11-11T14:11:28.127Z,70.79
2022-11-11T14:14:15.706Z,73.14
2022-11-11T14:17:03.286Z,74.24
2022-11-11T14:19:50.867Z,73.84
2022-11-11T14:22:38.434Z,76.21
2022-11-11T14:25:25.996Z,75.63
2022-11-11T14:28:14.671Z,74.87
2022-11-11T14:31:02.270Z,75.17
2022-11-11T14:33:49.859Z,77.14
2022-11-11T14:36:37.479Z,75.34
2022-11-11T14:39:25.070Z,74.74
2022-11-11T14:42:12.646Z,75.17
2022-11-11T14:45:00.248Z,73.57
2022-11-11T14:47:47.807Z,70.94
2022-11-11T14:50:35.393Z,70.49
2022-11-11T14:53:23.231Z,72.27
2022-11-11T14:56:11.012Z,72.97
2022-11-11T14:58:58.575Z,71.52
2022-11-11T15:01:46.237Z,71.39
2022-11-11T15:04:33.859Z,73.00
2022-11-11T15:07:21.490Z,79.62
2022-11-11T15:10:09.133Z,85.47
2022-11-11T15:12:56.725Z,87.84
2022-11-11T15:15:44.320Z,84.22
2022-11-11T15:18:31.920Z,83.82
2022-11-11T15:21:19.502Z,82.01
2022-11-11T15:24:07.096Z,76.83
2022-11-11T15:26:54.702Z,77.20
2022-11-11T15:29:42.301Z,79.04
2022-11-11T15:32:30.023Z,77.99
2022-11-11T15:35:17.650Z,83.05
2022-11-11T15:38:05.426Z,79.83
2022-11-11T15:40:53.006Z,79.65
2022-11-11T15:43:40.590Z,81.19
2022-11-11T15:46:28.186Z,85.86
2022-11-11T15:49:15.769Z,88.93
2022-11-11T15:52:03.361Z,87.33
2022-11-11T15:54:50.953Z,86.32
2022-11-11T15:57:38.537Z,88.07
2022-11-11T16:00:26.098Z,88.80
2022-11-11T16:03:13.692Z,89.61
2022-11-11T16:06:06.949Z,90.88
2022-11-11T16:08:34.206Z,88.08
2022-11-11T16:11:01.549Z,85.62
2022-11-11T16:13:28.881Z,84.97
2022-11-11T16:15:56.249Z,79.66
2022-11-11T16:18:25.834Z,73.37
2022-11-11T16:20:53.241Z,70.07
2022-11-11T16:23:20.518Z,71.26
2022-11-11T16:25:52.315Z,70.78
2022-11-11T16:28:20.869Z,73.56
2022-11-11T16:30:48.165Z,77.71
2022-11-11T16:33:15.425Z,78.87
2022-11-11T16:35:42.702Z,79.06
2022-11-11T16:38:09.983Z,83.42
2022-11-11T16:40:37.254Z,85.97
2022-11-11T16:43:04.521Z,80.26
2022-11-11T16:45:31.793Z,84.73
2022-11-11T16:47:59.038Z,83.80
2022-11-11T16:50:26.313Z,87.58
2022-11-11T16:52:53.561Z,89.37
2022-11-11T16:55:20.815Z,90.20
2022-11-11T16:57:48.080Z,94.65
2022-11-11T17:00:15.351Z,100.00
2022-11-11T17:02:42.638Z,100.00
2022-11-11T17:05:09.883Z,100.00
2022-11-11T17:07:37.152Z,100.00
2022-11-11T17:10:04.403Z,100.00
2022-11-11T17:12:31.669Z,100.00
2022-11-11T17:14:58.938Z,100.00
2022-11-11T17:17:26.248Z,99.99
2022-11-11T17:19:53.517Z,95.74
2022-11-11T17:22:20.788Z,95.16
2022-11-11T17:24:48.036Z,93.45
2022-11-11T17:27:15.280Z,93.13
2022-11-11T17:29:42.552Z,92.88
2022-11-11T17:32:09.937Z,94.61
2022-11-11T17:34:37.204Z,97.14
2022-11-11T17:37:04.483Z,98.00
2022-11-11T17:39:31.733Z,99.53
2022-11-11T17:41:58.994Z,99.02
2022-11-11T17:44:45.148Z,97.83
2022-11-11T17:47:31.004Z,95.17
2022-11-11T17:50:16.801Z,93.36
2022-11-11T17:53:02.695Z,92.64
2022-11-11T17:55:48.537Z,87.41
2022-11-11T17:58:39.822Z,82.58
2022-11-11T18:01:26.928Z,78.05
2022-11-11T18:04:12.913Z,77.20
2022-11-11T18:06:58.924Z,79.18
2022-11-11T18:09:44.842Z,82.09
2022-11-11T18:12:30.779Z,83.25
2022-11-11T18:15:16.656Z,84.31
2022-11-11T18:18:02.435Z,89.10
2022-11-11T18:20:48.237Z,95.77
2022-11-11T18:23:34.274Z,97.49
2022-11-11T18:26:20.209Z,96.61
2022-11-11T18:29:05.965Z,95.85
2022-11-11T18:31:55.951Z,97.90
2022-11-11T18:34:42.347Z,100.00
2022-11-11T18:37:28.174Z,100.00
2022-11-11T18:40:15.762Z,100.00
2022-11-11T18:43:03.418Z,100.00
2022-11-11T18:45:51.011Z,100.00
2022-11-11T18:48:38.583Z,100.00
2022-11-11T18:51:26.166Z,100.00
2022-11-11T18:54:13.760Z,100.00
2022-11-11T18:57:01.368Z,98.54
2022-11-11T18:59:48.934Z,100.00
2022-11-11T19:02:36.536Z,100.00
2022-11-11T19:05:24.096Z,100.00
2022-11-11T19:08:11.686Z,100.00
2022-11-11T19:10:59.258Z,100.00
2022-11-11T19:13:46.849Z,100.00
2022-11-11T19:16:34.434Z,100.00
2022-11-11T19:19:22.011Z,100.00
2022-11-11T19:22:09.590Z,98.07
2022-11-11T19:24:57.189Z,93.56
2022-11-11T19:27:44.746Z,90.02
2022-11-11T19:30:32.332Z,92.05
2022-11-11T19:33:19.900Z,91.85
2022-11-11T19:36:07.501Z,92.57
2022-11-11T19:38:55.067Z,92.23
2022-11-11T19:41:42.654Z,88.00
2022-11-11T19:44:30.250Z,88.80
2022-11-11T19:47:17.837Z,82.96
2022-11-11T19:50:05.516Z,78.88
2022-11-11T19:52:53.078Z,77.68
2022-11-11T19:55:40.686Z,79.15
2022-11-11T19:58:28.283Z,78.49
2022-11-11T20:01:15.958Z,76.38
2022-11-11T20:04:03.601Z,74.95
2022-11-11T20:06:51.291Z,82.24
2022-11-11T20:09:38.883Z,85.06
2022-11-11T20:12:26.504Z,86.83
2022-11-11T20:15:14.065Z,88.65
2022-11-11T20:18:01.644Z,87.86
2022-11-11T20:20:49.227Z,85.43
2022-11-11T20:23:36.821Z,87.76
2022-11-11T20:26:24.410Z,83.21
2022-11-11T20:29:11.986Z,84.12
2022-11-11T20:31:59.537Z,86.68
2022-11-11T20:34:47.144Z,93.64
2022-11-11T20:37:34.740Z,91.46
2022-11-11T20:40:22.295Z,93.89
2022-11-11T20:43:09.875Z,92.64
2022-11-11T20:45:57.454Z,92.28
2022-11-11T20:48:45.001Z,94.85
2022-11-11T20:51:32.597Z,89.44
2022-11-11T20:54:20.189Z,90.58
2022-11-11T20:57:07.747Z,99.71
2022-11-11T20:59:55.419Z,100.00
2022-11-11T21:02:42.974Z,95.27
2022-11-11T21:05:30.534Z,97.56
2022-11-11T21:08:18.139Z,89.20
2022-11-11T21:11:05.689Z,90.55
2022-11-11T21:13:53.280Z,93.04
2022-11-11T21:16:40.908Z,100.00
2022-11-11T21:19:28.506Z,95.62
2022-11-11T21:22:16.055Z,93.98
2022-11-11T21:25:03.631Z,100.00
2022-11-11T21:27:51.198Z,93.14
2022-11-11T21:30:38.786Z,84.01
2022-11-11T21:33:26.613Z,96.05
2022-11-11T21:36:14.481Z,95.59
2022-11-11T21:39:02.172Z,93.95
2022-11-11T21:41:49.795Z,93.66
2022-11-11T21:44:37.463Z,92.85
2022-11-11T21:47:27.006Z,86.25
2022-11-11T21:50:14.579Z,89.23
2022-11-11T21:53:02.223Z,100.00
2022-11-11T21:55:49.850Z,100.00
2022-11-11T21:58:37.452Z,98.27
2022-11-11T22:01:29.751Z,90.04
2022-11-11T22:04:17.840Z,90.42
2022-11-11T22:07:05.460Z,96.45
2022-11-11T22:09:53.122Z,90.87
2022-11-11T22:12:40.724Z,95.74
2022-11-11T22:15:28.314Z,86.66
2022-11-11T22:18:15.875Z,86.44
2022-11-11T22:21:03.479Z,93.12
2022-11-11T22:23:51.033Z,85.10
2022-11-11T22:26:38.607Z,87.38
2022-11-11T22:29:26.150Z,87.62
2022-11-11T22:32:13.717Z,86.40
2022-11-11T22:35:01.297Z,86.92
2022-11-11T22:37:49.120Z,91.09
2022-11-11T22:40:36.829Z,90.88
2022-11-11T22:43:45.621Z,83.88
2022-11-11T22:46:31.974Z,83.21
2022-11-11T22:49:21.578Z,85.71
2022-11-11T22:52:09.142Z,100.00
2022-11-11T22:54:56.729Z,100.00
2022-11-11T22:57:44.333Z,100.00
2022-11-11T23:00:31.874Z,95.93
2022-11-11T23:03:19.444Z,95.71
2022-11-11T23:06:07.082Z,92.41
2022-11-11T23:08:54.678Z,87.48
2022-11-11T23:11:42.227Z,95.01
2022-11-11T23:14:29.829Z,100.00
2022-11-11T23:17:17.405Z,100.00
2022-11-11T23:20:04.986Z,100.00
2022-11-11T23:22:52.556Z,94.94
2022-11-11T23:25:40.146Z,90.64
2022-11-11T23:28:28.085Z,82.55
2022-11-11T23:31:15.913Z,88.89
2022-11-11T23:34:03.493Z,93.17
2022-11-11T23:36:51.110Z,96.15
2022-11-11T23:39:38.692Z,93.31
2022-11-11T23:42:26.330Z,92.04
2022-11-11T23:45:13.897Z,92.47
2022-11-11T23:48:01.458Z,100.00
2022-11-11T23:50:49.060Z,99.61
2022-11-11T23:53:36.687Z,91.65
2022-11-11T23:56:24.266Z,85.43
2022-11-11T23:59:11.841Z,84.88
